sensor_id;sensor_type;location;lat;lon;timestamp;P1;durP1;ratioP1;P2;durP2;ratioP2
11865;SDS011;5992;52.744;6.898;2022-08-01T00:00:57;1.93;;;1.80;;
11865;SDS011;5992;52.744;6.898;2022-08-01T00:04:15;1.67;;;1.57;;
11865;SDS011;5992;52.744;6.898;2022-08-01T00:07:31;1.63;;;1.53;;
11865;SDS011;5992;52.744;6.898;2022-08-01T00:10:50;2.33;;;2.13;;
11865;SDS011;5992;52.744;6.898;2022-08-01T00:13:55;1.73;;;1.63;;
11865;SDS011;5992;52.744;6.898;2022-08-01T00:17:30;3.45;;;2.30;;
11865;SDS011;5992;52.744;6.898;2022-08-01T00:20:34;1.70;;;1.60;;
11865;SDS011;5992;52.744;6.898;2022-08-01T00:23:50;2.23;;;2.03;;
11865;SDS011;5992;52.744;6.898;2022-08-01T00:26:54;2.70;;;2.50;;
11865;SDS011;5992;52.744;6.898;2022-08-01T00:30:15;1.60;;;1.50;;
11865;SDS011;5992;52.744;6.898;2022-08-01T00:33:33;2.30;;;2.10;;
11865;SDS011;5992;52.744;6.898;2022-08-01T00:36:56;3.13;;;2.83;;
11865;SDS011;5992;52.744;6.898;2022-08-01T00:40:00;2.90;;;2.70;;
11865;SDS011;5992;52.744;6.898;2022-08-01T00:43:19;2.07;;;1.80;;
11865;SDS011;5992;52.744;6.898;2022-08-01T00:46:36;2.00;;;1.90;;
11865;SDS011;5992;52.744;6.898;2022-08-01T00:50:13;4.23;;;2.10;;
11865;SDS011;5992;52.744;6.898;2022-08-01T00:53:29;2.00;;;1.90;;
11865;SDS011;5992;52.744;6.898;2022-08-01T00:57:00;2.00;;;1.90;;
11865;SDS011;5992;52.744;6.898;2022-08-01T01:00:21;2.30;;;2.20;;
11865;SDS011;5992;52.744;6.898;2022-08-01T01:03:57;1.93;;;1.70;;
11865;SDS011;5992;52.744;6.898;2022-08-01T01:07:16;1.90;;;1.80;;
11865;SDS011;5992;52.744;6.898;2022-08-01T01:10:47;2.50;;;2.40;;
11865;SDS011;5992;52.744;6.898;2022-08-01T01:14:04;3.00;;;1.90;;
11865;SDS011;5992;52.744;6.898;2022-08-01T01:17:39;2.00;;;1.90;;
11865;SDS011;5992;52.744;6.898;2022-08-01T01:20:51;2.70;;;2.50;;
11865;SDS011;5992;52.744;6.898;2022-08-01T01:24:28;2.17;;;1.83;;
11865;SDS011;5992;52.744;6.898;2022-08-01T01:27:42;2.57;;;2.37;;
11865;SDS011;5992;52.744;6.898;2022-08-01T01:31:14;2.10;;;2.00;;
11865;SDS011;5992;52.744;6.898;2022-08-01T01:34:34;2.45;;;2.30;;
11865;SDS011;5992;52.744;6.898;2022-08-01T01:38:05;2.47;;;2.27;;
11865;SDS011;5992;52.744;6.898;2022-08-01T01:41:22;2.50;;;2.15;;
11865;SDS011;5992;52.744;6.898;2022-08-01T01:44:51;2.87;;;2.67;;
11865;SDS011;5992;52.744;6.898;2022-08-01T01:48:09;2.90;;;2.67;;
11865;SDS011;5992;52.744;6.898;2022-08-01T01:51:42;2.60;;;2.40;;
11865;SDS011;5992;52.744;6.898;2022-08-01T01:54:58;2.70;;;2.50;;
11865;SDS011;5992;52.744;6.898;2022-08-01T01:58:29;3.00;;;2.80;;
11865;SDS011;5992;52.744;6.898;2022-08-01T02:01:45;2.80;;;2.60;;
11865;SDS011;5992;52.744;6.898;2022-08-01T02:05:17;2.70;;;2.50;;
11865;SDS011;5992;52.744;6.898;2022-08-01T02:08:25;2.53;;;2.37;;
11865;SDS011;5992;52.744;6.898;2022-08-01T02:11:59;3.40;;;2.60;;
11865;SDS011;5992;52.744;6.898;2022-08-01T02:15:15;2.70;;;2.40;;
11865;SDS011;5992;52.744;6.898;2022-08-01T02:18:46;2.60;;;2.40;;
11865;SDS011;5992;52.744;6.898;2022-08-01T02:22:07;2.80;;;2.60;;
11865;SDS011;5992;52.744;6.898;2022-08-01T02:25:38;2.87;;;2.67;;
11865;SDS011;5992;52.744;6.898;2022-08-01T02:29:02;2.87;;;2.57;;
11865;SDS011;5992;52.744;6.898;2022-08-01T02:32:32;2.50;;;2.40;;
11865;SDS011;5992;52.744;6.898;2022-08-01T02:35:48;2.70;;;2.50;;
11865;SDS011;5992;52.744;6.898;2022-08-01T02:39:20;2.80;;;2.60;;
11865;SDS011;5992;52.744;6.898;2022-08-01T02:42:38;3.77;;;2.17;;
11865;SDS011;5992;52.744;6.898;2022-08-01T02:46:11;2.50;;;2.30;;
11865;SDS011;5992;52.744;6.898;2022-08-01T02:49:28;2.10;;;2.00;;
11865;SDS011;5992;52.744;6.898;2022-08-01T02:53:02;1.87;;;1.73;;
11865;SDS011;5992;52.744;6.898;2022-08-01T02:56:24;2.17;;;2.03;;
11865;SDS011;5992;52.744;6.898;2022-08-01T02:59:55;2.13;;;2.03;;
11865;SDS011;5992;52.744;6.898;2022-08-01T03:03:13;2.10;;;1.90;;
11865;SDS011;5992;52.744;6.898;2022-08-01T03:06:48;2.00;;;1.90;;
11865;SDS011;5992;52.744;6.898;2022-08-01T03:10:03;1.97;;;1.80;;
11865;SDS011;5992;52.744;6.898;2022-08-01T03:13:33;1.93;;;1.83;;
11865;SDS011;5992;52.744;6.898;2022-08-01T03:19:53;2.00;;;1.75;;
11865;SDS011;5992;52.744;6.898;2022-08-01T03:23:11;1.60;;;1.60;;
11865;SDS011;5992;52.744;6.898;2022-08-01T03:26:42;1.63;;;1.57;;
11865;SDS011;5992;52.744;6.898;2022-08-01T03:30:04;3.60;;;1.95;;
11865;SDS011;5992;52.744;6.898;2022-08-01T03:33:32;2.67;;;1.60;;
11865;SDS011;5992;52.744;6.898;2022-08-01T03:36:48;1.40;;;1.30;;
11865;SDS011;5992;52.744;6.898;2022-08-01T03:40:20;1.43;;;1.23;;
11865;SDS011;5992;52.744;6.898;2022-08-01T03:43:38;1.60;;;1.50;;
11865;SDS011;5992;52.744;6.898;2022-08-01T03:47:10;1.50;;;1.40;;
11865;SDS011;5992;52.744;6.898;2022-08-01T03:50:31;1.40;;;1.30;;
11865;SDS011;5992;52.744;6.898;2022-08-01T03:57:09;1.55;;;1.30;;
11865;SDS011;5992;52.744;6.898;2022-08-01T04:00:37;1.33;;;1.23;;
11865;SDS011;5992;52.744;6.898;2022-08-01T04:04:07;2.47;;;1.50;;
11865;SDS011;5992;52.744;6.898;2022-08-01T04:07:23;1.37;;;1.20;;
11865;SDS011;5992;52.744;6.898;2022-08-01T04:10:56;1.20;;;1.10;;
11865;SDS011;5992;52.744;6.898;2022-08-01T04:13:51;1.00;;;1.00;;
11865;SDS011;5992;52.744;6.898;2022-08-01T04:17:24;0.95;;;0.95;;
11865;SDS011;5992;52.744;6.898;2022-08-01T04:20:32;1.23;;;1.00;;
11865;SDS011;5992;52.744;6.898;2022-08-01T04:24:06;2.60;;;1.43;;
11865;SDS011;5992;52.744;6.898;2022-08-01T04:27:21;1.00;;;0.97;;
11865;SDS011;5992;52.744;6.898;2022-08-01T04:30:52;1.13;;;1.03;;
11865;SDS011;5992;52.744;6.898;2022-08-01T04:34:07;1.23;;;1.10;;
11865;SDS011;5992;52.744;6.898;2022-08-01T04:37:40;1.10;;;1.00;;
11865;SDS011;5992;52.744;6.898;2022-08-01T04:40:55;1.23;;;1.13;;
11865;SDS011;5992;52.744;6.898;2022-08-01T04:47:37;2.17;;;0.93;;
11865;SDS011;5992;52.744;6.898;2022-08-01T04:51:11;3.00;;;1.00;;
11865;SDS011;5992;52.744;6.898;2022-08-01T04:54:29;1.13;;;1.00;;
11865;SDS011;5992;52.744;6.898;2022-08-01T04:57:59;0.90;;;0.77;;
11865;SDS011;5992;52.744;6.898;2022-08-01T05:01:02;0.95;;;0.95;;
11865;SDS011;5992;52.744;6.898;2022-08-01T05:04:21;0.70;;;0.70;;
11865;SDS011;5992;52.744;6.898;2022-08-01T05:07:25;1.97;;;0.90;;
11865;SDS011;5992;52.744;6.898;2022-08-01T05:10:48;0.30;;;0.30;;
11865;SDS011;5992;52.744;6.898;2022-08-01T05:14:07;0.80;;;0.80;;
11865;SDS011;5992;52.744;6.898;2022-08-01T05:17:26;1.20;;;1.10;;
11865;SDS011;5992;52.744;6.898;2022-08-01T05:20:30;0.83;;;0.77;;
11865;SDS011;5992;52.744;6.898;2022-08-01T05:23:49;1.13;;;0.80;;
11865;SDS011;5992;52.744;6.898;2022-08-01T05:26:57;3.80;;;0.90;;
11865;SDS011;5992;52.744;6.898;2022-08-01T05:30:27;1.20;;;0.90;;
11865;SDS011;5992;52.744;6.898;2022-08-01T05:33:31;0.97;;;0.90;;
11865;SDS011;5992;52.744;6.898;2022-08-01T05:36:53;3.63;;;1.57;;
11865;SDS011;5992;52.744;6.898;2022-08-01T05:39:57;3.30;;;1.10;;
11865;SDS011;5992;52.744;6.898;2022-08-01T05:43:14;1.20;;;1.10;;
11865;SDS011;5992;52.744;6.898;2022-08-01T05:46:30;0.90;;;0.90;;
11865;SDS011;5992;52.744;6.898;2022-08-01T05:50:04;1.85;;;0.80;;
11865;SDS011;5992;52.744;6.898;2022-08-01T05:53:20;1.47;;;1.20;;
11865;SDS011;5992;52.744;6.898;2022-08-01T05:56:36;1.63;;;1.17;;
11865;SDS011;5992;52.744;6.898;2022-08-01T05:59:41;1.37;;;0.93;;
11865;SDS011;5992;52.744;6.898;2022-08-01T06:03:12;2.20;;;1.33;;
11865;SDS011;5992;52.744;6.898;2022-08-01T06:06:34;3.90;;;1.40;;
11865;SDS011;5992;52.744;6.898;2022-08-01T06:09:53;1.30;;;1.10;;
11865;SDS011;5992;52.744;6.898;2022-08-01T06:12:59;2.70;;;0.93;;
11865;SDS011;5992;52.744;6.898;2022-08-01T06:16:21;3.67;;;1.47;;
11865;SDS011;5992;52.744;6.898;2022-08-01T06:19:37;2.20;;;1.50;;
11865;SDS011;5992;52.744;6.898;2022-08-01T06:22:59;3.70;;;1.45;;
11865;SDS011;5992;52.744;6.898;2022-08-01T06:26:05;2.90;;;1.33;;
11865;SDS011;5992;52.744;6.898;2022-08-01T06:29:23;2.45;;;1.50;;
11865;SDS011;5992;52.744;6.898;2022-08-01T06:32:41;5.33;;;1.53;;
11865;SDS011;5992;52.744;6.898;2022-08-01T06:36:14;2.43;;;1.10;;
11865;SDS011;5992;52.744;6.898;2022-08-01T06:39:20;2.70;;;1.50;;
11865;SDS011;5992;52.744;6.898;2022-08-01T06:42:40;3.27;;;1.60;;
11865;SDS011;5992;52.744;6.898;2022-08-01T06:45:56;1.53;;;1.30;;
11865;SDS011;5992;52.744;6.898;2022-08-01T06:49:31;3.93;;;1.63;;
11865;SDS011;5992;52.744;6.898;2022-08-01T06:52:50;3.47;;;1.70;;
11865;SDS011;5992;52.744;6.898;2022-08-01T06:56:07;2.53;;;1.60;;
11865;SDS011;5992;52.744;6.898;2022-08-01T06:59:23;3.37;;;1.63;;
11865;SDS011;5992;52.744;6.898;2022-08-01T07:02:42;4.47;;;1.63;;
11865;SDS011;5992;52.744;6.898;2022-08-01T07:05:59;8.90;;;1.65;;
11865;SDS011;5992;52.744;6.898;2022-08-01T07:09:27;2.93;;;1.47;;
11865;SDS011;5992;52.744;6.898;2022-08-01T07:12:34;4.20;;;1.73;;
11865;SDS011;5992;52.744;6.898;2022-08-01T07:15:47;2.90;;;1.20;;
11865;SDS011;5992;52.744;6.898;2022-08-01T07:19:04;6.30;;;2.27;;
11865;SDS011;5992;52.744;6.898;2022-08-01T07:22:10;5.47;;;2.00;;
11865;SDS011;5992;52.744;6.898;2022-08-01T07:25:40;3.50;;;1.70;;
11865;SDS011;5992;52.744;6.898;2022-08-01T07:28:56;5.73;;;1.87;;
11865;SDS011;5992;52.744;6.898;2022-08-01T07:32:15;3.80;;;1.40;;
11865;SDS011;5992;52.744;6.898;2022-08-01T07:35:20;3.90;;;2.20;;
11865;SDS011;5992;52.744;6.898;2022-08-01T07:38:38;4.93;;;1.63;;
11865;SDS011;5992;52.744;6.898;2022-08-01T07:41:55;8.83;;;2.53;;
11865;SDS011;5992;52.744;6.898;2022-08-01T07:45:11;6.07;;;1.80;;
11865;SDS011;5992;52.744;6.898;2022-08-01T07:48:27;3.20;;;1.37;;
11865;SDS011;5992;52.744;6.898;2022-08-01T07:51:46;6.67;;;2.13;;
11865;SDS011;5992;52.744;6.898;2022-08-01T07:54:54;6.70;;;1.70;;
11865;SDS011;5992;52.744;6.898;2022-08-01T07:58:23;7.67;;;1.97;;
11865;SDS011;5992;52.744;6.898;2022-08-01T08:01:30;3.93;;;1.70;;
11865;SDS011;5992;52.744;6.898;2022-08-01T08:04:48;10.20;;;2.23;;
11865;SDS011;5992;52.744;6.898;2022-08-01T08:07:52;5.87;;;2.37;;
11865;SDS011;5992;52.744;6.898;2022-08-01T08:11:13;5.87;;;2.00;;
11865;SDS011;5992;52.744;6.898;2022-08-01T08:14:31;5.93;;;2.23;;
11865;SDS011;5992;52.744;6.898;2022-08-01T08:17:50;9.43;;;2.37;;
11865;SDS011;5992;52.744;6.898;2022-08-01T08:20:54;6.43;;;2.07;;
11865;SDS011;5992;52.744;6.898;2022-08-01T08:24:28;4.60;;;1.87;;
11865;SDS011;5992;52.744;6.898;2022-08-01T08:27:51;5.37;;;1.83;;
11865;SDS011;5992;52.744;6.898;2022-08-01T08:31:24;6.93;;;1.93;;
11865;SDS011;5992;52.744;6.898;2022-08-01T08:34:28;9.90;;;2.70;;
11865;SDS011;5992;52.744;6.898;2022-08-01T08:38:00;5.40;;;1.80;;
11865;SDS011;5992;52.744;6.898;2022-08-01T08:41:04;8.33;;;2.47;;
11865;SDS011;5992;52.744;6.898;2022-08-01T08:44:37;4.33;;;1.83;;
11865;SDS011;5992;52.744;6.898;2022-08-01T08:47:56;4.20;;;1.97;;
11865;SDS011;5992;52.744;6.898;2022-08-01T08:51:31;8.30;;;2.10;;
11865;SDS011;5992;52.744;6.898;2022-08-01T08:54:50;5.95;;;2.10;;
11865;SDS011;5992;52.744;6.898;2022-08-01T08:58:18;6.70;;;2.00;;
11865;SDS011;5992;52.744;6.898;2022-08-01T09:01:36;4.97;;;2.03;;
11865;SDS011;5992;52.744;6.898;2022-08-01T09:05:12;10.63;;;2.57;;
11865;SDS011;5992;52.744;6.898;2022-08-01T09:08:28;8.57;;;1.93;;
11865;SDS011;5992;52.744;6.898;2022-08-01T09:11:59;6.35;;;2.40;;
11865;SDS011;5992;52.744;6.898;2022-08-01T09:15:15;10.33;;;2.53;;
11865;SDS011;5992;52.744;6.898;2022-08-01T09:18:37;7.03;;;2.07;;
11865;SDS011;5992;52.744;6.898;2022-08-01T09:21:57;6.40;;;2.40;;
11865;SDS011;5992;52.744;6.898;2022-08-01T09:25:27;4.50;;;1.60;;
11865;SDS011;5992;52.744;6.898;2022-08-01T09:28:34;4.15;;;2.10;;
11865;SDS011;5992;52.744;6.898;2022-08-01T09:32:08;8.05;;;2.60;;
11865;SDS011;5992;52.744;6.898;2022-08-01T09:35:27;5.83;;;1.87;;
11865;SDS011;5992;52.744;6.898;2022-08-01T09:38:55;4.45;;;1.65;;
11865;SDS011;5992;52.744;6.898;2022-08-01T09:42:00;9.27;;;2.00;;
11865;SDS011;5992;52.744;6.898;2022-08-01T09:45:33;8.53;;;2.10;;
11865;SDS011;5992;52.744;6.898;2022-08-01T09:48:54;4.55;;;1.90;;
11865;SDS011;5992;52.744;6.898;2022-08-01T09:52:27;6.90;;;1.90;;
11865;SDS011;5992;52.744;6.898;2022-08-01T09:55:45;8.35;;;2.50;;
11865;SDS011;5992;52.744;6.898;2022-08-01T09:59:07;2.67;;;1.80;;
11865;SDS011;5992;52.744;6.898;2022-08-01T10:02:26;3.53;;;1.70;;
11865;SDS011;5992;52.744;6.898;2022-08-01T10:05:59;3.93;;;1.70;;
11865;SDS011;5992;52.744;6.898;2022-08-01T10:09:06;7.00;;;2.30;;
11865;SDS011;5992;52.744;6.898;2022-08-01T10:12:37;5.10;;;1.77;;
11865;SDS011;5992;52.744;6.898;2022-08-01T10:15:53;6.87;;;2.03;;
11865;SDS011;5992;52.744;6.898;2022-08-01T10:19:12;5.20;;;1.70;;
11865;SDS011;5992;52.744;6.898;2022-08-01T10:22:28;4.80;;;1.60;;
11865;SDS011;5992;52.744;6.898;2022-08-01T10:26:00;4.53;;;1.50;;
11865;SDS011;5992;52.744;6.898;2022-08-01T10:29:22;3.55;;;1.85;;
11865;SDS011;5992;52.744;6.898;2022-08-01T10:32:54;4.90;;;1.80;;
11865;SDS011;5992;52.744;6.898;2022-08-01T10:36:10;5.63;;;1.93;;
11865;SDS011;5992;52.744;6.898;2022-08-01T10:39:38;5.77;;;1.80;;
11865;SDS011;5992;52.744;6.898;2022-08-01T10:42:55;4.53;;;1.90;;
11865;SDS011;5992;52.744;6.898;2022-08-01T10:46:26;4.63;;;1.77;;
11865;SDS011;5992;52.744;6.898;2022-08-01T10:49:43;5.07;;;1.30;;
11865;SDS011;5992;52.744;6.898;2022-08-01T10:53:12;2.13;;;1.30;;
11865;SDS011;5992;52.744;6.898;2022-08-01T10:56:32;2.13;;;1.73;;
11865;SDS011;5992;52.744;6.898;2022-08-01T11:00:06;2.30;;;1.37;;
11865;SDS011;5992;52.744;6.898;2022-08-01T11:03:26;3.73;;;1.60;;
11865;SDS011;5992;52.744;6.898;2022-08-01T11:07:03;2.80;;;1.90;;
11865;SDS011;5992;52.744;6.898;2022-08-01T11:10:36;4.90;;;1.90;;
11865;SDS011;5992;52.744;6.898;2022-08-01T11:14:05;4.37;;;1.40;;
11865;SDS011;5992;52.744;6.898;2022-08-01T11:17:32;4.50;;;1.80;;
11865;SDS011;5992;52.744;6.898;2022-08-01T11:21:02;3.77;;;1.40;;
11865;SDS011;5992;52.744;6.898;2022-08-01T11:24:06;2.93;;;1.47;;
11865;SDS011;5992;52.744;6.898;2022-08-01T11:27:26;3.60;;;1.57;;
11865;SDS011;5992;52.744;6.898;2022-08-01T11:30:41;5.23;;;1.70;;
11865;SDS011;5992;52.744;6.898;2022-08-01T11:34:16;4.40;;;1.30;;
11865;SDS011;5992;52.744;6.898;2022-08-01T11:37:35;3.23;;;1.87;;
11865;SDS011;5992;52.744;6.898;2022-08-01T11:41:09;4.97;;;1.83;;
11865;SDS011;5992;52.744;6.898;2022-08-01T11:47:54;4.30;;;1.87;;
11865;SDS011;5992;52.744;6.898;2022-08-01T11:51:16;4.30;;;1.53;;
11865;SDS011;5992;52.744;6.898;2022-08-01T11:54:47;3.77;;;1.53;;
11865;SDS011;5992;52.744;6.898;2022-08-01T11:58:05;2.63;;;1.43;;
11865;SDS011;5992;52.744;6.898;2022-08-01T12:01:34;3.27;;;1.77;;
11865;SDS011;5992;52.744;6.898;2022-08-01T12:04:54;2.63;;;1.50;;
11865;SDS011;5992;52.744;6.898;2022-08-01T12:08:10;4.57;;;1.50;;
11865;SDS011;5992;52.744;6.898;2022-08-01T12:11:44;2.93;;;1.60;;
11865;SDS011;5992;52.744;6.898;2022-08-01T12:15:04;2.60;;;1.40;;
11865;SDS011;5992;52.744;6.898;2022-08-01T12:18:37;2.17;;;1.30;;
11865;SDS011;5992;52.744;6.898;2022-08-01T12:22:05;3.35;;;1.35;;
11865;SDS011;5992;52.744;6.898;2022-08-01T12:25:38;4.20;;;1.10;;
11865;SDS011;5992;52.744;6.898;2022-08-01T12:28:53;1.97;;;1.10;;
11865;SDS011;5992;52.744;6.898;2022-08-01T12:32:25;2.87;;;1.33;;
11865;SDS011;5992;52.744;6.898;2022-08-01T12:35:44;3.20;;;1.70;;
11865;SDS011;5992;52.744;6.898;2022-08-01T12:39:00;1.70;;;1.30;;
11865;SDS011;5992;52.744;6.898;2022-08-01T12:42:06;1.80;;;1.25;;
11865;SDS011;5992;52.744;6.898;2022-08-01T12:45:34;2.43;;;1.30;;
11865;SDS011;5992;52.744;6.898;2022-08-01T12:48:52;4.63;;;1.37;;
11865;SDS011;5992;52.744;6.898;2022-08-01T12:52:26;3.90;;;1.40;;
11865;SDS011;5992;52.744;6.898;2022-08-01T12:55:45;5.13;;;1.10;;
11865;SDS011;5992;52.744;6.898;2022-08-01T12:59:24;4.90;;;1.53;;
11865;SDS011;5992;52.744;6.898;2022-08-01T13:02:42;1.75;;;1.00;;
11865;SDS011;5992;52.744;6.898;2022-08-01T13:06:13;2.03;;;1.40;;
11865;SDS011;5992;52.744;6.898;2022-08-01T13:09:32;4.10;;;1.20;;
11865;SDS011;5992;52.744;6.898;2022-08-01T13:12:54;3.70;;;1.30;;
11865;SDS011;5992;52.744;6.898;2022-08-01T13:16:17;3.03;;;1.70;;
11865;SDS011;5992;52.744;6.898;2022-08-01T13:19:50;1.90;;;0.90;;
11865;SDS011;5992;52.744;6.898;2022-08-01T13:22:54;1.35;;;0.90;;
11865;SDS011;5992;52.744;6.898;2022-08-01T13:26:37;2.40;;;1.17;;
11865;SDS011;5992;52.744;6.898;2022-08-01T13:29:55;1.50;;;1.00;;
11865;SDS011;5992;52.744;6.898;2022-08-01T13:33:38;1.43;;;0.93;;
11865;SDS011;5992;52.744;6.898;2022-08-01T13:36:45;1.33;;;1.00;;
11865;SDS011;5992;52.744;6.898;2022-08-01T13:40:02;5.13;;;1.27;;
11865;SDS011;5992;52.744;6.898;2022-08-01T13:43:18;1.35;;;1.15;;
11865;SDS011;5992;52.744;6.898;2022-08-01T13:46:37;2.13;;;0.83;;
11865;SDS011;5992;52.744;6.898;2022-08-01T13:49:55;2.87;;;0.97;;
11865;SDS011;5992;52.744;6.898;2022-08-01T13:53:28;2.03;;;1.33;;
11865;SDS011;5992;52.744;6.898;2022-08-01T13:56:44;1.17;;;1.03;;
11865;SDS011;5992;52.744;6.898;2022-08-01T14:00:15;1.23;;;1.00;;
11865;SDS011;5992;52.744;6.898;2022-08-01T14:03:44;1.35;;;1.10;;
11865;SDS011;5992;52.744;6.898;2022-08-01T14:06:54;3.03;;;1.07;;
11865;SDS011;5992;52.744;6.898;2022-08-01T14:10:31;2.27;;;1.10;;
11865;SDS011;5992;52.744;6.898;2022-08-01T14:17:17;2.23;;;1.20;;
11865;SDS011;5992;52.744;6.898;2022-08-01T14:20:22;1.10;;;1.10;;
11865;SDS011;5992;52.744;6.898;2022-08-01T14:23:43;2.95;;;1.00;;
11865;SDS011;5992;52.744;6.898;2022-08-01T14:26:59;1.80;;;1.10;;
11865;SDS011;5992;52.744;6.898;2022-08-01T14:30:18;1.45;;;1.00;;
11865;SDS011;5992;52.744;6.898;2022-08-01T14:33:22;2.20;;;1.17;;
11865;SDS011;5992;52.744;6.898;2022-08-01T14:36:50;2.73;;;0.90;;
11865;SDS011;5992;52.744;6.898;2022-08-01T14:39:58;1.90;;;1.10;;
11865;SDS011;5992;52.744;6.898;2022-08-01T14:43:32;1.50;;;0.90;;
11865;SDS011;5992;52.744;6.898;2022-08-01T14:46:36;1.75;;;1.20;;
11865;SDS011;5992;52.744;6.898;2022-08-01T14:49:55;1.60;;;1.00;;
11865;SDS011;5992;52.744;6.898;2022-08-01T14:52:59;1.60;;;1.23;;
11865;SDS011;5992;52.744;6.898;2022-08-01T14:56:20;1.63;;;1.10;;
11865;SDS011;5992;52.744;6.898;2022-08-01T14:59:38;1.67;;;1.20;;
11865;SDS011;5992;52.744;6.898;2022-08-01T15:02:54;2.00;;;1.00;;
11865;SDS011;5992;52.744;6.898;2022-08-01T15:05:58;2.35;;;1.00;;
11865;SDS011;5992;52.744;6.898;2022-08-01T15:09:17;2.40;;;0.90;;
11865;SDS011;5992;52.744;6.898;2022-08-01T15:12:24;2.40;;;1.20;;
11865;SDS011;5992;52.744;6.898;2022-08-01T15:15:57;1.90;;;1.20;;
11865;SDS011;5992;52.744;6.898;2022-08-01T15:19:02;1.90;;;1.00;;
11865;SDS011;5992;52.744;6.898;2022-08-01T15:25:34;1.65;;;1.00;;
11865;SDS011;5992;52.744;6.898;2022-08-01T15:32:12;1.70;;;0.90;;
11865;SDS011;5992;52.744;6.898;2022-08-01T15:35:49;4.20;;;1.40;;
11865;SDS011;5992;52.744;6.898;2022-08-01T15:42:08;2.00;;;1.10;;
11865;SDS011;5992;52.744;6.898;2022-08-01T15:58:11;2.90;;;1.40;;
11865;SDS011;5992;52.744;6.898;2022-08-01T16:05:01;2.50;;;1.10;;
11865;SDS011;5992;52.744;6.898;2022-08-01T16:14:27;1.30;;;1.20;;
11865;SDS011;5992;52.744;6.898;2022-08-01T16:20:59;2.60;;;1.40;;
11865;SDS011;5992;52.744;6.898;2022-08-01T16:24:18;1.80;;;1.00;;
11865;SDS011;5992;52.744;6.898;2022-08-01T16:27:22;1.65;;;0.90;;
11865;SDS011;5992;52.744;6.898;2022-08-01T16:46:32;1.30;;;1.00;;
11865;SDS011;5992;52.744;6.898;2022-08-01T16:59:38;1.63;;;1.00;;
11865;SDS011;5992;52.744;6.898;2022-08-01T17:02:56;2.60;;;1.30;;
11865;SDS011;5992;52.744;6.898;2022-08-01T17:06:17;1.95;;;1.10;;
11865;SDS011;5992;52.744;6.898;2022-08-01T17:09:36;1.40;;;1.00;;
11865;SDS011;5992;52.744;6.898;2022-08-01T17:12:44;1.55;;;1.05;;
11865;SDS011;5992;52.744;6.898;2022-08-01T17:16:03;2.25;;;1.05;;
11865;SDS011;5992;52.744;6.898;2022-08-01T17:19:25;2.90;;;1.20;;
11865;SDS011;5992;52.744;6.898;2022-08-01T17:22:41;2.10;;;1.30;;
11865;SDS011;5992;52.744;6.898;2022-08-01T17:26:03;1.50;;;1.00;;
11865;SDS011;5992;52.744;6.898;2022-08-01T17:29:16;1.50;;;1.20;;
11865;SDS011;5992;52.744;6.898;2022-08-01T17:32:34;3.00;;;1.20;;
11865;SDS011;5992;52.744;6.898;2022-08-01T17:35:41;1.57;;;0.97;;
11865;SDS011;5992;52.744;6.898;2022-08-01T17:39:17;3.50;;;1.30;;
11865;SDS011;5992;52.744;6.898;2022-08-01T17:42:28;1.45;;;1.10;;
11865;SDS011;5992;52.744;6.898;2022-08-01T17:45:48;2.50;;;1.10;;
11865;SDS011;5992;52.744;6.898;2022-08-01T17:49:04;2.50;;;1.10;;
11865;SDS011;5992;52.744;6.898;2022-08-01T17:52:38;1.37;;;1.00;;
11865;SDS011;5992;52.744;6.898;2022-08-01T17:56:10;1.67;;;1.13;;
11865;SDS011;5992;52.744;6.898;2022-08-01T17:59:38;1.97;;;1.00;;
11865;SDS011;5992;52.744;6.898;2022-08-01T18:02:55;1.73;;;1.10;;
11865;SDS011;5992;52.744;6.898;2022-08-01T18:05:59;1.07;;;1.00;;
11865;SDS011;5992;52.744;6.898;2022-08-01T18:09:20;1.60;;;1.00;;
11865;SDS011;5992;52.744;6.898;2022-08-01T18:12:39;3.20;;;1.10;;
11865;SDS011;5992;52.744;6.898;2022-08-01T18:15:59;1.20;;;1.10;;
11865;SDS011;5992;52.744;6.898;2022-08-01T18:19:12;1.30;;;1.10;;
11865;SDS011;5992;52.744;6.898;2022-08-01T18:22:32;2.33;;;1.23;;
11865;SDS011;5992;52.744;6.898;2022-08-01T18:29:09;4.00;;;1.50;;
11865;SDS011;5992;52.744;6.898;2022-08-01T18:32:25;1.97;;;1.30;;
11865;SDS011;5992;52.744;6.898;2022-08-01T18:35:41;4.77;;;1.63;;
11865;SDS011;5992;52.744;6.898;2022-08-01T18:38:45;1.20;;;0.90;;
11865;SDS011;5992;52.744;6.898;2022-08-01T18:42:06;2.33;;;1.53;;
11865;SDS011;5992;52.744;6.898;2022-08-01T18:45:21;6.77;;;1.60;;
11865;SDS011;5992;52.744;6.898;2022-08-01T18:48:37;3.40;;;1.50;;
11865;SDS011;5992;52.744;6.898;2022-08-01T18:51:41;5.10;;;1.80;;
11865;SDS011;5992;52.744;6.898;2022-08-01T18:55:00;2.23;;;1.20;;
11865;SDS011;5992;52.744;6.898;2022-08-01T18:58:06;2.80;;;1.33;;
11865;SDS011;5992;52.744;6.898;2022-08-01T19:01:37;3.27;;;1.40;;
11865;SDS011;5992;52.744;6.898;2022-08-01T19:04:58;1.60;;;1.10;;
11865;SDS011;5992;52.744;6.898;2022-08-01T19:08:18;4.40;;;1.30;;
11865;SDS011;5992;52.744;6.898;2022-08-01T19:11:27;7.57;;;1.50;;
11865;SDS011;5992;52.744;6.898;2022-08-01T19:15:02;3.33;;;1.33;;
11865;SDS011;5992;52.744;6.898;2022-08-01T19:18:18;3.90;;;1.50;;
11865;SDS011;5992;52.744;6.898;2022-08-01T19:21:46;2.20;;;1.50;;
11865;SDS011;5992;52.744;6.898;2022-08-01T19:24:50;2.60;;;1.17;;
11865;SDS011;5992;52.744;6.898;2022-08-01T19:28:09;2.53;;;1.10;;
11865;SDS011;5992;52.744;6.898;2022-08-01T19:31:27;4.73;;;1.30;;
11865;SDS011;5992;52.744;6.898;2022-08-01T19:35:02;3.03;;;1.47;;
11865;SDS011;5992;52.744;6.898;2022-08-01T19:38:17;3.53;;;1.97;;
11865;SDS011;5992;52.744;6.898;2022-08-01T19:41:38;3.20;;;1.40;;
11865;SDS011;5992;52.744;6.898;2022-08-01T19:44:55;2.20;;;1.13;;
11865;SDS011;5992;52.744;6.898;2022-08-01T19:48:22;3.07;;;1.40;;
11865;SDS011;5992;52.744;6.898;2022-08-01T19:51:47;4.50;;;1.77;;
11865;SDS011;5992;52.744;6.898;2022-08-01T19:55:15;2.70;;;1.80;;
11865;SDS011;5992;52.744;6.898;2022-08-01T19:58:32;3.55;;;1.60;;
11865;SDS011;5992;52.744;6.898;2022-08-01T20:02:00;3.77;;;1.60;;
11865;SDS011;5992;52.744;6.898;2022-08-01T20:05:35;4.27;;;1.77;;
11865;SDS011;5992;52.744;6.898;2022-08-01T20:08:53;2.73;;;1.50;;
11865;SDS011;5992;52.744;6.898;2022-08-01T20:12:28;4.03;;;1.40;;
11865;SDS011;5992;52.744;6.898;2022-08-01T20:15:32;3.03;;;1.50;;
11865;SDS011;5992;52.744;6.898;2022-08-01T20:19:04;3.90;;;1.30;;
11865;SDS011;5992;52.744;6.898;2022-08-01T20:22:12;2.83;;;1.40;;
11865;SDS011;5992;52.744;6.898;2022-08-01T20:25:46;2.53;;;1.50;;
11865;SDS011;5992;52.744;6.898;2022-08-01T20:29:04;2.57;;;1.30;;
11865;SDS011;5992;52.744;6.898;2022-08-01T20:32:38;1.67;;;1.30;;
11865;SDS011;5992;52.744;6.898;2022-08-01T20:35:58;2.25;;;1.25;;
11865;SDS011;5992;52.744;6.898;2022-08-01T20:39:36;1.60;;;1.10;;
11865;SDS011;5992;52.744;6.898;2022-08-01T20:42:55;1.80;;;1.23;;
11865;SDS011;5992;52.744;6.898;2022-08-01T20:46:28;3.37;;;1.43;;
11865;SDS011;5992;52.744;6.898;2022-08-01T20:49:32;2.40;;;1.67;;
11865;SDS011;5992;52.744;6.898;2022-08-01T20:53:06;4.50;;;1.50;;
11865;SDS011;5992;52.744;6.898;2022-08-01T20:56:15;2.07;;;1.37;;
11865;SDS011;5992;52.744;6.898;2022-08-01T20:59:46;4.23;;;1.60;;
11865;SDS011;5992;52.744;6.898;2022-08-01T21:03:05;2.40;;;1.33;;
11865;SDS011;5992;52.744;6.898;2022-08-01T21:06:36;2.33;;;1.33;;
11865;SDS011;5992;52.744;6.898;2022-08-01T21:13:18;2.03;;;1.13;;
11865;SDS011;5992;52.744;6.898;2022-08-01T21:16:39;1.90;;;1.03;;
11865;SDS011;5992;52.744;6.898;2022-08-01T21:20:13;4.13;;;1.90;;
11865;SDS011;5992;52.744;6.898;2022-08-01T21:23:30;1.90;;;1.33;;
11865;SDS011;5992;52.744;6.898;2022-08-01T21:27:00;5.10;;;2.00;;
11865;SDS011;5992;52.744;6.898;2022-08-01T21:30:20;5.03;;;1.83;;
11865;SDS011;5992;52.744;6.898;2022-08-01T21:33:51;4.10;;;2.55;;
11865;SDS011;5992;52.744;6.898;2022-08-01T21:37:10;4.47;;;2.10;;
11865;SDS011;5992;52.744;6.898;2022-08-01T21:40:43;2.70;;;1.25;;
11865;SDS011;5992;52.744;6.898;2022-08-01T21:44:02;2.13;;;1.53;;
11865;SDS011;5992;52.744;6.898;2022-08-01T21:47:25;2.13;;;1.47;;
11865;SDS011;5992;52.744;6.898;2022-08-01T21:50:47;2.35;;;1.20;;